Corona Emblem — 3FHF8 — position and weather

sailwx.info

Track history (hours):
 
Tides and Currents Weather Stations Pressure Air Temp Water Temp Dewpoint Dewpoint Depression Visibility Wind Speed Wind Dir Waves Ship Positions

Corona Emblem

Last reported at 2015-Jul-21 10:22 UTC. Time now 2015-Jul-29 09:31 UTC.
Position N 34°44' E 139°42'.

Length 230 m; beam 36 m.

Type: Cargo ship. MMSI: 354224000.

Date/timePositionNaut miles runAvg speedWind from/ knotsBaromVisibWave heightAir tempDewpointWater temp
2015-Jul-21 10:22N 34°44' E 139°42'1311.6
2015-Jul-21 09:14N 34°57' E 139°39'810.8
2015-Jul-21 08:31N 35°05' E 139°42'10 9.9
2015-Jul-21 07:33N 35°14' E 139°46'1111.1
2015-Jul-21 06:33N 35°24' E 139°43'1111.4
2015-Jul-21 05:33N 35°31' E 139°55'3 2.6
2015-Jul-21 04:32N 35°32' E 139°58'0 0.0
2015-Jul-21 03:32N 35°32' E 139°58'0 0.1
2015-Jul-21 02:32N 35°32' E 139°58'0 0.1
2015-Jul-21 01:32N 35°32' E 139°57'0 0.0
2015-Jul-21 00:32N 35°31' E 139°57'0 0.0
2015-Jul-20 23:29N 35°32' E 139°57'2 1.9
2015-Jul-20 22:33N 35°31' E 139°55'1111.3
2015-Jul-20 21:33N 35°23' E 139°46'1111.0
2015-Jul-20 20:33N 35°12' E 139°47'9 9.2
2015-Jul-20 19:33N 35°03' E 139°44'8 8.1
2015-Jul-20 18:33N 34°55' E 139°43'8 7.4
2015-Jul-20 17:32N 34°50' E 139°49'10 9.9
2015-Jul-20 16:33N 34°50' E 140°01'1212.1
2015-Jul-20 15:32N 34°50' E 140°16'8 1.2
2015-Jul-20 09:16N 34°42' E 140°17'9 4.2
2015-Jul-20 07:15N 34°40' E 140°07'3 4.3
2015-Jul-20 06:27N 34°41' E 140°03'7 8.0
2015-Jul-20 05:33N 34°44' E 140°10'10 9.8
2015-Jul-20 04:32N 34°47' E 140°22'53 8.7
2015-Jul-19 22:27N 35°20' E 141°13'1110.2
2015-Jul-19 21:20N 35°31' E 141°13'810.0
2015-Jul-19 20:33N 35°39' E 141°12'2411.8
2015-Jul-19 18:30N 36°03' E 141°13'1111.8
2015-Jul-19 17:33N 36°14' E 141°14'1211.5
2015-Jul-19 16:33N 36°26' E 141°17'1312.2
2015-Jul-19 15:30N 36°39' E 141°17'  
2015-Jul-14 15:07N 36°42' E 141°60'610.3
2015-Jul-14 14:30N 36°36' E 142°04'1210.6
2015-Jul-14 13:20N 36°25' E 142°10'911.2
2015-Jul-14 12:33N 36°17' E 142°15'1311.4
2015-Jul-14 11:26N 36°05' E 142°20'1211.5
2015-Jul-14 10:23N 35°54' E 142°23'  
Track history (hours):
 
Tides and Currents Weather Stations Pressure Air Temp Water Temp Dewpoint Dewpoint Depression Visibility Wind Speed Wind Dir Waves Ship Positions

Corona Emblem

Last reported at 2015-Jul-21 10:22 UTC. Time now 2015-Jul-29 09:31 UTC.
Position N 34°44' E 139°42'.

Length 230 m; beam 36 m.

Type: Cargo ship. MMSI: 354224000.

Date/timePositionNaut miles runAvg speedWind from/ knotsBaromVisibWave heightAir tempDewpointWater temp
2015-Jul-21 10:22N 34°44' E 139°42'1311.6
2015-Jul-21 09:14N 34°57' E 139°39'810.8
2015-Jul-21 08:31N 35°05' E 139°42'10 9.9
2015-Jul-21 07:33N 35°14' E 139°46'1111.1
2015-Jul-21 06:33N 35°24' E 139°43'1111.4
2015-Jul-21 05:33N 35°31' E 139°55'3 2.6
2015-Jul-21 04:32N 35°32' E 139°58'0 0.0
2015-Jul-21 03:32N 35°32' E 139°58'0 0.1
2015-Jul-21 02:32N 35°32' E 139°58'0 0.1
2015-Jul-21 01:32N 35°32' E 139°57'0 0.0
2015-Jul-21 00:32N 35°31' E 139°57'0 0.0
2015-Jul-20 23:29N 35°32' E 139°57'2 1.9
2015-Jul-20 22:33N 35°31' E 139°55'1111.3
2015-Jul-20 21:33N 35°23' E 139°46'1111.0
2015-Jul-20 20:33N 35°12' E 139°47'9 9.2
2015-Jul-20 19:33N 35°03' E 139°44'8 8.1
2015-Jul-20 18:33N 34°55' E 139°43'8 7.4
2015-Jul-20 17:32N 34°50' E 139°49'10 9.9
2015-Jul-20 16:33N 34°50' E 140°01'1212.1
2015-Jul-20 15:32N 34°50' E 140°16'8 1.2
2015-Jul-20 09:16N 34°42' E 140°17'9 4.2
2015-Jul-20 07:15N 34°40' E 140°07'3 4.3
2015-Jul-20 06:27N 34°41' E 140°03'7 8.0
2015-Jul-20 05:33N 34°44' E 140°10'10 9.8
2015-Jul-20 04:32N 34°47' E 140°22'53 8.7
2015-Jul-19 22:27N 35°20' E 141°13'1110.2
2015-Jul-19 21:20N 35°31' E 141°13'810.0
2015-Jul-19 20:33N 35°39' E 141°12'2411.8
2015-Jul-19 18:30N 36°03' E 141°13'1111.8
2015-Jul-19 17:33N 36°14' E 141°14'1211.5
2015-Jul-19 16:33N 36°26' E 141°17'1312.2
2015-Jul-19 15:30N 36°39' E 141°17'  
2015-Jul-14 15:07N 36°42' E 141°60'610.3
2015-Jul-14 14:30N 36°36' E 142°04'1210.6
2015-Jul-14 13:20N 36°25' E 142°10'911.2
2015-Jul-14 12:33N 36°17' E 142°15'1311.4
2015-Jul-14 11:26N 36°05' E 142°20'1211.5
2015-Jul-14 10:23N 35°54' E 142°23'  

Dump ship's entire track history